Time;durP1;ratioP1;P1;durP2;ratioP2;P2;SDS_P1;SDS_P2;PMS_P1;PMS_P2;Temp;Humidity;BMP_temperature;BMP_pressure;BME280_temperature;BME280_humidity;BME280_pressure;Samples;Min_cycle;Max_cycle;Signal;HPM_P1;HPM_P2
2022/12/10 00:01:10;;;;;;;39.60;23.80;;;3.90;78.80;;;6.76;57.10;100778.34;5043470;28;20198;-49
2022/12/10 00:03:37;;;;;;;38.70;23.53;;;3.90;78.60;;;6.79;56.87;100779.84;5057596;28;20190;-55
2022/12/10 00:06:09;;;;;;;38.50;22.80;;;3.90;78.60;;;6.85;57.23;100786.28;5057775;28;20202;-52
2022/12/10 00:08:37;;;;;;;34.63;22.33;;;3.90;78.70;;;6.92;56.77;100787.31;5057177;28;20277;-54
2022/12/10 00:11:06;;;;;;;39.93;23.80;;;4.00;78.80;;;6.98;57.62;100781.47;5056932;28;20201;-52
2022/12/10 00:13:35;;;;;;;37.80;23.93;;;4.00;79.30;;;7.06;56.94;100784.19;5057243;28;20299;-54
2022/12/10 00:16:08;;;;;;;42.40;25.40;;;4.10;79.10;;;7.07;57.32;100791.84;5058129;28;20199;-55
2022/12/10 00:18:36;;;;;;;42.20;24.67;;;4.10;78.70;;;7.11;56.63;100787.13;5058949;28;20209;-54
2022/12/10 00:21:04;;;;;;;35.27;23.40;;;4.10;78.30;;;7.09;56.24;100791.69;5057531;28;20194;-54
2022/12/10 00:23:33;;;;;;;38.17;24.03;;;4.20;78.10;;;7.08;56.95;100784.84;5057252;28;20194;-53
2022/12/10 00:26:03;;;;;;;40.63;23.63;;;4.20;77.90;;;7.11;56.75;100784.50;5056848;28;20662;-53
2022/12/10 00:28:32;;;;;;;36.60;22.20;;;4.20;78.20;;;7.16;56.80;100783.09;5056904;28;20217;-54
2022/12/10 00:31:06;;;;;;;38.73;23.33;;;4.20;78.00;;;7.13;56.38;100779.97;5056982;28;20186;-53
2022/12/10 00:33:33;;;;;;;35.07;21.87;;;4.30;77.50;;;7.18;56.91;100775.13;5057090;28;20206;-53
2022/12/10 00:36:05;;;;;;;37.20;23.07;;;4.30;78.10;;;7.26;56.45;100785.63;5056731;28;20608;-53
2022/12/10 00:38:33;;;;;;;35.67;22.27;;;4.30;78.10;;;7.31;56.31;100778.16;5055874;28;20528;-53
2022/12/10 00:41:00;;;;;;;37.97;23.33;;;4.40;77.90;;;7.32;55.56;100777.19;5056866;28;20257;-52
2022/12/10 00:43:27;;;;;;;37.20;24.27;;;4.40;77.40;;;7.35;56.08;100782.09;5057215;28;20289;-51
2022/12/10 00:45:54;;;;;;;34.97;22.03;;;4.40;77.10;;;7.37;55.76;100785.38;5057472;28;20202;-54
2022/12/10 00:48:23;;;;;;;30.17;20.50;;;4.40;77.20;;;7.40;55.77;100788.53;5056843;28;20245;-52
2022/12/10 00:50:59;;;;;;;34.60;22.73;;;4.40;77.40;;;7.45;55.92;100793.28;5056592;28;20195;-53
2022/12/10 00:53:28;;;;;;;39.10;23.47;;;4.40;77.50;;;7.49;55.92;100789.38;5055068;28;20186;-55
2022/12/10 00:55:56;;;;;;;39.73;22.83;;;4.50;77.30;;;7.48;55.00;100795.63;5036691;28;20247;-51
2022/12/10 00:58:25;;;;;;;38.27;23.60;;;4.50;76.60;;;7.45;55.39;100793.28;5051093;28;20588;-51
2022/12/10 01:00:52;;;;;;;39.13;23.13;;;4.50;76.60;;;7.41;55.46;100792.78;5056256;28;20273;-51
2022/12/10 01:03:20;;;;;;;35.07;23.13;;;4.50;76.40;;;7.40;55.66;100790.31;5056714;28;20190;-53
2022/12/10 01:05:48;;;;;;;36.00;23.40;;;4.50;76.40;;;7.36;55.64;100799.47;5058202;28;20196;-55
2022/12/10 01:08:15;;;;;;;36.67;22.50;;;4.50;76.40;;;7.31;55.62;100791.22;5060096;28;20199;-55
2022/12/10 01:10:42;;;;;;;36.50;22.40;;;4.50;76.40;;;7.30;55.40;100800.03;5061041;28;20666;-54
2022/12/10 01:13:09;;;;;;;41.67;25.47;;;4.40;76.40;;;7.28;55.53;100802.00;5062222;28;20183;-55
2022/12/10 01:15:38;;;;;;;40.47;23.77;;;4.40;76.40;;;7.23;55.14;100804.25;5064558;28;20216;-56
2022/12/10 01:18:06;;;;;;;35.27;22.60;;;4.40;76.30;;;7.24;55.58;100805.91;5067709;28;20232;-53
2022/12/10 01:20:36;;;;;;;34.77;22.43;;;4.40;76.60;;;7.19;55.71;100808.16;5061964;28;20217;-54
2022/12/10 01:23:04;;;;;;;36.90;23.40;;;4.30;76.40;;;7.17;55.46;100810.09;5061100;28;20190;-54
2022/12/10 01:25:31;;;;;;;36.17;22.43;;;4.30;76.70;;;7.16;56.31;100811.06;5061107;28;20199;-54
2022/12/10 01:27:58;;;;;;;34.67;23.03;;;4.30;76.80;;;7.19;55.96;100810.75;5060286;28;20191;-52
2022/12/10 01:30:25;;;;;;;33.53;22.33;;;4.30;77.10;;;7.17;55.96;100816.16;5058530;28;20205;-56
2022/12/10 01:32:52;;;;;;;37.83;23.80;;;4.30;76.70;;;7.07;55.68;100814.59;5059648;28;20582;-55
2022/12/10 01:35:19;;;;;;;36.37;22.43;;;4.30;76.40;;;6.96;56.33;100814.81;5061280;28;20191;-55
2022/12/10 01:37:46;;;;;;;32.30;21.13;;;4.20;76.20;;;6.90;55.96;100818.84;5061515;28;20643;-55
2022/12/10 01:40:14;;;;;;;34.30;20.90;;;4.20;76.50;;;6.91;56.31;100822.28;5062329;28;20222;-56
2022/12/10 01:42:41;;;;;;;32.43;20.33;;;4.20;76.80;;;6.95;56.24;100821.00;5062055;28;20183;-54
2022/12/10 01:45:12;;;;;;;36.33;21.77;;;4.10;77.10;;;6.99;56.38;100823.16;5062376;28;20194;-55
2022/12/10 01:47:40;;;;;;;36.40;22.73;;;4.10;77.40;;;7.03;56.34;100831.56;5041910;28;20537;-55
2022/12/10 01:50:08;;;;;;;36.47;23.63;;;4.10;77.30;;;7.00;56.14;100834.47;5040110;28;20211;-54
2022/12/10 01:52:37;;;;;;;30.43;19.90;;;4.10;77.10;;;7.01;56.81;100836.13;5039885;28;20196;-54
2022/12/10 01:55:41;;;;;;;34.63;21.67;;;4.10;77.40;;;7.07;56.30;100838.13;5057679;28;20198;-55
2022/12/10 01:58:09;;;;;;;37.20;22.67;;;4.20;78.00;;;7.15;56.09;100839.03;5060830;28;20183;-55
2022/12/10 02:00:46;;;;;;;36.93;23.17;;;4.20;77.50;;;7.17;55.52;100837.09;5061654;28;20660;-56
2022/12/10 02:03:21;;;;;;;33.27;22.53;;;4.30;77.20;;;7.17;55.41;100844.13;5060484;28;20195;-55
2022/12/10 02:05:57;;;;;;;33.93;20.83;;;4.30;76.80;;;7.19;56.07;100837.75;5059885;28;20185;-56
2022/12/10 02:08:30;;;;;;;34.20;22.47;;;4.30;76.80;;;7.20;55.94;100842.00;5059555;28;20187;-54
2022/12/10 02:11:13;;;;;;;36.00;22.17;;;4.30;76.80;;;7.19;55.49;100845.63;5060423;28;20618;-59
2022/12/10 02:13:45;;;;;;;36.33;22.27;;;4.30;76.60;;;7.19;55.52;100839.56;5059579;28;20241;-54
2022/12/10 02:16:17;;;;;;;38.97;23.17;;;4.30;76.30;;;7.16;55.60;100839.84;5059886;28;20588;-54
2022/12/10 02:18:53;;;;;;;39.67;24.17;;;4.30;76.40;;;7.12;55.10;100847.19;5059417;28;20267;-52
2022/12/10 02:21:29;;;;;;;34.07;22.87;;;4.20;76.10;;;7.08;55.21;100839.78;5056942;28;20186;-53
2022/12/10 02:24:02;;;;;;;35.80;22.03;;;4.20;75.80;;;7.06;55.07;100839.91;5056551;28;20520;-52
2022/12/10 02:26:43;;;;;;;34.00;20.93;;;4.20;76.00;;;7.06;56.09;100839.13;5055284;28;20194;-55
2022/12/10 02:29:16;;;;;;;34.87;21.27;;;4.20;76.50;;;7.13;55.37;100840.97;5054743;28;20292;-54
2022/12/10 02:31:55;;;;;;;34.07;21.87;;;4.20;76.70;;;7.17;55.66;100844.94;5055043;28;20270;-52
2022/12/10 02:34:27;;;;;;;36.33;23.53;;;4.20;76.60;;;7.15;55.08;100838.22;5055479;28;20589;-53
2022/12/10 02:36:58;;;;;;;33.33;20.90;;;4.20;76.00;;;7.11;55.21;100839.47;5054548;28;20202;-52
2022/12/10 02:39:36;;;;;;;31.87;21.40;;;4.20;75.70;;;7.05;54.97;100843.53;5054702;28;20203;-52
2022/12/10 02:42:06;;;;;;;37.33;22.67;;;4.20;75.80;;;7.08;55.10;100847.63;5055085;28;20191;-52
2022/12/10 02:44:39;;;;;;;34.73;20.47;;;4.20;76.20;;;7.06;55.09;100844.34;5056448;28;20189;-53
2022/12/10 02:47:08;;;;;;;31.90;21.67;;;4.20;76.10;;;7.03;55.80;100855.09;5055054;28;20194;-52
2022/12/10 02:49:38;;;;;;;34.00;21.87;;;4.20;75.90;;;7.05;55.23;100853.16;5054423;28;20215;-52
2022/12/10 02:52:08;;;;;;;33.47;20.90;;;4.20;76.10;;;7.08;55.48;100852.88;5037286;28;20205;-52
2022/12/10 02:54:40;;;;;;;32.40;21.43;;;4.20;76.20;;;7.08;55.55;100861.56;5046872;28;20199;-53
2022/12/10 02:57:35;;;;;;;32.97;21.93;;;4.20;76.90;;;7.01;55.13;100851.81;5054743;28;20206;-52
2022/12/10 03:00:16;;;;;;;36.10;23.57;;;4.20;75.90;;;6.97;55.73;100853.06;5054211;28;20214;-54
2022/12/10 03:03:02;;;;;;;31.50;20.17;;;4.20;75.70;;;6.91;55.60;100848.44;5054162;28;20187;-50
2022/12/10 03:05:40;;;;;;;37.87;22.97;;;4.20;75.70;;;6.83;55.45;100850.00;5054033;28;20226;-53
2022/12/10 03:08:14;;;;;;;32.93;20.70;;;4.10;75.50;;;6.81;55.76;100846.72;5055075;28;20245;-55
2022/12/10 03:10:52;;;;;;;32.17;20.17;;;4.10;75.70;;;6.82;55.84;100848.34;5053834;28;20278;-54
2022/12/10 03:13:29;;;;;;;33.27;20.27;;;4.10;75.90;;;6.86;55.22;100848.06;5053690;28;20193;-53
2022/12/10 03:16:01;;;;;;;30.53;18.87;;;4.00;75.90;;;6.92;55.23;100847.50;5053775;28;20232;-54
2022/12/10 03:18:32;;;;;;;31.07;19.17;;;4.00;75.70;;;6.95;54.65;100847.16;5053259;28;20215;-53
2022/12/10 03:21:05;;;;;;;31.97;20.40;;;4.00;75.30;;;6.98;54.91;100852.94;5053723;28;20318;-52
2022/12/10 03:23:36;;;;;;;28.43;18.07;;;4.10;75.30;;;7.02;55.03;100848.22;5053546;28;20180;-54
2022/12/10 03:26:05;;;;;;;31.53;20.73;;;4.10;75.50;;;7.01;54.52;100851.81;5054022;28;20251;-52
2022/12/10 03:28:40;;;;;;;31.53;19.90;;;4.10;74.90;;;6.98;54.73;100844.25;5052900;28;20229;-54
2022/12/10 03:31:15;;;;;;;31.00;20.77;;;4.10;75.00;;;7.03;54.89;100842.84;5052970;28;20193;-53
2022/12/10 03:33:43;;;;;;;32.73;20.73;;;4.10;75.80;;;7.12;55.07;100838.50;5053347;28;20239;-53
2022/12/10 03:36:11;;;;;;;34.50;21.03;;;4.10;76.00;;;7.18;54.32;100849.19;5053406;28;20201;-53
2022/12/10 03:38:39;;;;;;;33.67;20.30;;;4.20;75.50;;;7.25;54.30;100849.44;5052554;28;20298;-53
2022/12/10 03:41:06;;;;;;;30.53;19.23;;;4.30;75.50;;;7.29;54.81;100845.53;5053311;28;20223;-53
2022/12/10 03:43:33;;;;;;;30.70;20.97;;;4.30;75.30;;;7.35;54.44;100847.53;5053349;28;20243;-53
2022/12/10 03:46:01;;;;;;;33.93;21.07;;;4.40;75.40;;;7.43;54.52;100832.75;5053234;28;20198;-54
2022/12/10 03:48:29;;;;;;;31.27;20.43;;;4.40;75.60;;;7.51;54.29;100834.59;5053377;28;20303;-55
2022/12/10 03:50:56;;;;;;;30.90;20.37;;;4.50;75.20;;;7.55;54.01;100838.53;5053251;28;20286;-54
2022/12/10 03:53:23;;;;;;;28.20;17.90;;;4.60;75.00;;;7.60;53.93;100832.84;5052708;28;20249;-52
2022/12/10 03:55:50;;;;;;;30.97;20.70;;;4.60;74.90;;;7.60;53.39;100833.69;5053381;28;20193;-55
2022/12/10 03:58:17;;;;;;;26.60;18.77;;;4.60;74.20;;;7.59;53.56;100832.03;5052872;28;20243;-53
2022/12/10 04:00:46;;;;;;;31.60;19.93;;;4.60;74.20;;;7.63;54.12;100832.56;5053200;28;20585;-52
2022/12/10 04:03:13;;;;;;;29.70;19.80;;;4.70;74.70;;;7.64;53.74;100840.25;5053550;28;20191;-52
2022/12/10 04:05:41;;;;;;;30.20;19.57;;;4.70;74.20;;;7.66;53.78;100835.66;5053277;28;20194;-52
2022/12/10 04:08:08;;;;;;;28.53;19.40;;;4.70;74.40;;;7.68;53.45;100836.34;5052954;28;20265;-59
2022/12/10 04:10:36;;;;;;;27.67;19.90;;;4.70;74.40;;;7.70;53.37;100839.63;5053140;28;20228;-52
2022/12/10 04:18:35;;;;;;;24.33;18.40;;;4.80;73.90;;;7.74;52.99;100846.22;5057875;28;20265;-55
2022/12/10 04:26:53;;;;;;;26.83;18.63;;;4.70;72.30;;;7.41;53.14;100839.94;5057772;28;20226;-54
2022/12/10 04:29:21;;;;;;;26.30;16.30;;;4.70;72.70;;;7.42;53.76;100835.50;5058512;28;20214;-52
2022/12/10 04:31:48;;;;;;;24.37;16.70;;;4.60;73.10;;;7.46;53.20;100831.63;5058924;28;20192;-53
2022/12/10 04:34:16;;;;;;;26.67;18.13;;;4.60;73.10;;;7.49;53.49;100836.53;5057225;28;20217;-54
2022/12/10 04:36:45;;;;;;;27.00;19.00;;;4.60;73.30;;;7.55;53.11;100835.94;5054772;28;20257;-53
2022/12/10 04:39:13;;;;;;;27.60;18.47;;;4.60;73.30;;;7.61;52.85;100834.50;5052350;28;20330;-54
2022/12/10 04:41:43;;;;;;;22.70;16.07;;;4.60;73.00;;;7.62;52.14;100834.34;5051676;28;20273;-54
2022/12/10 04:44:11;;;;;;;22.60;16.13;;;4.60;71.90;;;7.57;51.83;100826.13;5034712;28;20186;-54
2022/12/10 04:46:38;;;;;;;21.33;14.00;;;4.60;72.00;;;7.54;50.90;100823.78;5048762;28;20269;-54
2022/12/10 04:49:05;;;;;;;24.90;15.80;;;4.60;70.50;;;7.49;51.61;100831.28;5056055;28;20626;-55
2022/12/10 04:51:33;;;;;;;22.90;15.40;;;4.60;71.20;;;7.50;51.81;100833.78;5043160;28;20200;-51
2022/12/10 04:54:02;;;;;;;23.50;16.30;;;4.60;71.60;;;7.54;51.98;100834.28;5043105;28;20253;-52
2022/12/10 04:56:30;;;;;;;23.27;15.93;;;4.60;71.70;;;7.58;51.49;100840.88;5056672;28;20197;-53
2022/12/10 04:58:58;;;;;;;16.03;11.63;;;4.60;71.40;;;7.58;51.15;100824.31;5055873;28;20220;-53
2022/12/10 05:01:26;;;;;;;17.20;12.53;;;4.60;70.10;;;7.57;50.37;100827.91;5056193;28;20212;-54
2022/12/10 05:03:53;;;;;;;21.70;14.80;;;4.50;69.20;;;7.54;50.42;100834.28;5056342;28;20249;-54
2022/12/10 05:06:21;;;;;;;22.23;16.43;;;4.60;69.50;;;7.51;50.60;100829.38;5055063;28;20194;-54
2022/12/10 05:08:48;;;;;;;23.30;16.93;;;4.60;69.60;;;7.43;51.28;100830.13;5055532;28;20215;-55
2022/12/10 05:11:19;;;;;;;19.43;13.70;;;4.60;70.00;;;7.34;51.13;100830.22;5055856;28;20240;-53
2022/12/10 05:13:47;;;;;;;11.53;9.83;;;4.60;69.70;;;7.34;50.42;100827.59;5055884;28;20620;-55
2022/12/10 05:16:18;;;;;;;12.53;9.93;;;4.50;68.70;;;7.32;50.27;100824.31;5055691;28;20204;-55
2022/12/10 05:18:45;;;;;;;15.90;11.80;;;4.50;68.70;;;7.34;50.26;100827.59;5055316;28;20289;-53
2022/12/10 05:21:15;;;;;;;19.53;13.63;;;4.40;68.50;;;7.34;50.17;100824.97;5055256;28;20219;-54
2022/12/10 05:23:46;;;;;;;21.40;14.80;;;4.40;69.00;;;7.33;50.15;100820.69;5055733;28;20224;-54
2022/12/10 05:26:17;;;;;;;22.33;14.90;;;4.40;68.70;;;7.33;51.04;100821.53;5055895;28;20261;-53
2022/12/10 05:28:47;;;;;;;20.93;15.47;;;4.40;69.70;;;7.37;50.90;100827.25;5055866;28;20274;-53
2022/12/10 05:31:17;;;;;;;18.97;12.70;;;4.50;69.90;;;7.42;50.04;100822.41;5055954;28;20212;-52
2022/12/10 05:33:44;;;;;;;18.63;12.13;;;4.50;69.50;;;7.42;49.48;100825.00;5055506;28;20186;-54
2022/12/10 05:36:15;;;;;;;19.27;13.80;;;4.50;68.40;;;7.41;49.71;100826.84;5055294;28;20210;-54
2022/12/10 05:38:43;;;;;;;21.03;14.50;;;4.50;68.30;;;7.37;49.31;100824.66;5047106;28;20226;-54
2022/12/10 05:41:13;;;;;;;17.40;12.80;;;4.50;67.80;;;7.35;50.01;100823.97;5035503;28;20615;-53
2022/12/10 05:43:43;;;;;;;19.43;13.70;;;4.40;68.20;;;7.34;49.37;100828.41;5035457;28;20225;-52
2022/12/10 05:46:14;;;;;;;23.87;14.90;;;4.50;68.10;;;7.31;50.17;100836.56;5042278;28;20255;-53
2022/12/10 05:48:41;;;;;;;21.93;14.97;;;4.50;68.30;;;7.31;50.35;100833.13;5035145;28;20266;-52
2022/12/10 05:51:11;;;;;;;21.30;15.27;;;4.40;68.40;;;7.28;50.13;100838.66;5035476;28;20717;-55
2022/12/10 05:53:39;;;;;;;19.47;13.53;;;4.40;68.60;;;7.25;50.54;100833.72;5040570;28;20321;-51
2022/12/10 05:56:10;;;;;;;19.87;14.90;;;4.40;68.60;;;7.28;50.11;100846.50;5055047;28;20222;-52
2022/12/10 05:58:39;;;;;;;21.37;15.47;;;4.40;68.90;;;7.31;50.48;100856.69;5055177;28;20226;-54
2022/12/10 06:01:10;;;;;;;22.67;16.40;;;4.40;69.40;;;7.35;51.07;100850.97;5054981;28;20219;-55
2022/12/10 06:03:38;;;;;;;23.73;16.03;;;4.40;69.70;;;7.35;51.20;100860.63;5055141;28;20203;-54
2022/12/10 06:06:05;;;;;;;27.70;17.33;;;4.40;70.00;;;7.31;50.87;100856.69;5054690;28;20530;-53
2022/12/10 06:08:34;;;;;;;24.53;16.13;;;4.40;70.10;;;7.30;50.69;100862.88;5054472;28;20234;-54
2022/12/10 06:11:02;;;;;;;21.70;14.47;;;4.40;69.80;;;7.30;50.93;100857.63;5054910;28;20187;-54
2022/12/10 06:13:29;;;;;;;22.63;14.70;;;4.40;70.00;;;7.34;51.60;100861.63;5054252;28;20254;-52
2022/12/10 06:15:56;;;;;;;18.60;13.00;;;4.40;70.30;;;7.38;50.47;100860.34;5054538;28;20239;-53
2022/12/10 06:18:25;;;;;;;17.90;12.63;;;4.40;69.80;;;7.36;49.99;100857.88;5054451;28;20218;-52
2022/12/10 06:20:52;;;;;;;20.63;14.30;;;4.40;68.70;;;7.35;50.25;100871.09;5055282;28;20287;-54
2022/12/10 06:23:19;;;;;;;24.10;15.83;;;4.40;68.60;;;7.31;49.88;100872.38;5054773;28;20715;-53
2022/12/10 06:25:45;;;;;;;24.27;16.13;;;4.40;68.60;;;7.24;50.56;100868.72;5054303;28;20249;-54
2022/12/10 06:28:12;;;;;;;25.27;16.93;;;4.40;68.80;;;7.19;50.80;100865.72;5053958;28;20244;-53
2022/12/10 06:30:39;;;;;;;24.53;16.70;;;4.40;69.20;;;7.17;50.83;100867.69;5055343;28;20241;-52
2022/12/10 06:33:06;;;;;;;23.80;16.17;;;4.30;69.50;;;7.18;50.79;100874.56;5054178;28;20201;-54
2022/12/10 06:35:37;;;;;;;24.03;15.70;;;4.30;69.60;;;7.18;50.82;100877.19;5054608;28;20200;-53
2022/12/10 06:38:04;;;;;;;26.07;17.73;;;4.40;69.90;;;7.19;51.64;100873.56;5054095;28;20178;-55
2022/12/10 06:40:31;;;;;;;15.73;11.33;;;4.30;70.00;;;7.13;51.04;100876.81;5054147;28;20214;-55
2022/12/10 06:42:58;;;;;;;13.57;10.53;;;4.30;69.40;;;7.14;50.29;100874.03;5054169;28;20220;-55
2022/12/10 06:45:24;;;;;;;20.40;13.83;;;4.30;68.20;;;7.15;50.08;100877.47;5059691;28;20200;-55
2022/12/10 06:47:51;;;;;;;23.07;16.10;;;4.30;67.80;;;7.14;49.85;100887.13;5063360;28;20630;-55
2022/12/10 06:50:18;;;;;;;27.00;17.83;;;4.30;68.20;;;7.03;51.01;100886.50;5061766;28;20542;-55
2022/12/10 06:52:47;;;;;;;24.73;16.67;;;4.30;69.40;;;7.01;51.52;100888.44;5064136;28;20673;-52
2022/12/10 06:55:20;;;;;;;24.10;17.00;;;4.20;69.70;;;6.92;51.89;100884.13;5066113;28;20193;-55
2022/12/10 06:57:50;;;;;;;27.27;18.13;;;4.20;69.70;;;6.87;52.01;100886.34;5062661;28;20194;-55
2022/12/10 07:00:18;;;;;;;25.33;17.53;;;4.20;70.20;;;6.91;51.99;100898.16;5060512;28;20211;-55
2022/12/10 07:02:48;;;;;;;33.20;21.60;;;4.10;70.40;;;6.99;52.58;100893.81;5065976;28;20204;-55
2022/12/10 07:05:16;;;;;;;30.87;20.97;;;4.10;71.10;;;7.07;52.55;100899.16;5065685;28;20200;-52
2022/12/10 07:07:43;;;;;;;29.70;19.77;;;4.20;71.70;;;7.06;52.16;100901.91;5064990;28;20232;-55
2022/12/10 07:10:13;;;;;;;30.77;21.07;;;4.20;71.70;;;7.02;52.94;100905.78;5064110;28;20203;-55
2022/12/10 07:12:40;;;;;;;28.47;17.97;;;4.20;71.90;;;7.01;52.47;100904.16;5063251;28;20239;-54
2022/12/10 07:15:08;;;;;;;34.70;21.17;;;4.10;71.80;;;6.98;53.55;100915.72;5065655;28;20247;-55
2022/12/10 07:17:35;;;;;;;33.37;20.50;;;4.20;72.50;;;6.97;53.68;100908.00;5064551;28;20191;-55
2022/12/10 07:20:03;;;;;;;32.10;20.47;;;4.10;72.80;;;6.92;54.06;100912.88;5063808;28;20614;-54
2022/12/10 07:22:30;;;;;;;34.77;22.80;;;4.10;73.30;;;6.81;53.96;100919.97;5063117;28;20210;-55
2022/12/10 07:24:57;;;;;;;32.03;20.83;;;4.00;73.80;;;6.67;54.17;100917.00;5058590;28;20193;-56
2022/12/10 07:27:25;;;;;;;33.30;20.30;;;4.00;73.90;;;6.59;55.07;100922.94;5056654;28;20201;-55
2022/12/10 07:29:52;;;;;;;32.03;19.93;;;4.00;74.40;;;6.56;54.67;100922.44;5039769;28;20288;-55
2022/12/10 07:32:19;;;;;;;34.63;19.97;;;3.90;74.10;;;6.60;55.16;100929.84;5056893;28;20251;-53
2022/12/10 07:34:46;;;;;;;33.13;21.87;;;3.90;74.30;;;6.60;55.68;100927.22;5058788;28;20208;-54
2022/12/10 07:37:13;;;;;;;34.20;20.50;;;3.80;74.90;;;6.62;55.04;100919.22;5058524;28;20251;-56
2022/12/10 07:39:42;;;;;;;27.77;18.63;;;3.80;74.70;;;6.67;54.75;100917.84;5057908;28;20234;-55
2022/12/10 07:42:09;;;;;;;28.53;18.90;;;3.80;74.80;;;6.74;54.25;100920.69;5058604;28;20298;-52
2022/12/10 07:44:37;;;;;;;28.87;17.90;;;3.80;74.70;;;6.79;53.89;100921.91;5059291;28;20228;-55
2022/12/10 07:47:05;;;;;;;29.53;18.90;;;3.90;74.20;;;6.79;53.77;100926.31;5056441;28;20261;-54
2022/12/10 07:49:32;;;;;;;28.97;19.37;;;3.90;73.50;;;6.85;53.73;100930.13;5054973;28;20211;-54
2022/12/10 07:51:59;;;;;;;30.50;19.43;;;3.90;73.50;;;6.86;53.62;100929.97;5055725;28;20187;-52
2022/12/10 07:54:26;;;;;;;26.53;18.70;;;3.90;73.20;;;6.87;53.45;100933.44;5056228;28;20190;-54
2022/12/10 07:56:53;;;;;;;29.77;18.77;;;4.00;73.00;;;6.90;52.71;100943.56;5055448;28;20593;-53
2022/12/10 07:59:20;;;;;;;25.60;17.77;;;4.00;73.00;;;6.93;52.76;100932.81;5056290;28;20261;-55
2022/12/10 08:01:49;;;;;;;22.70;15.63;;;4.00;72.70;;;6.92;52.26;100937.22;5052958;28;20215;-54
2022/12/10 08:04:16;;;;;;;25.77;16.73;;;4.00;72.00;;;6.98;52.87;100941.06;5053073;28;20241;-52
2022/12/10 08:06:43;;;;;;;26.17;18.43;;;4.00;72.40;;;7.00;52.18;100954.81;5053223;28;20189;-52
2022/12/10 08:09:12;;;;;;;26.47;17.90;;;4.00;72.00;;;6.98;52.33;100946.28;5053308;28;20231;-56
2022/12/10 08:11:39;;;;;;;22.87;15.47;;;4.10;71.60;;;6.95;52.21;100946.59;5053261;28;20213;-54
2022/12/10 08:14:06;;;;;;;17.67;13.40;;;4.10;71.10;;;7.00;50.99;100952.19;5052996;28;20207;-54
2022/12/10 08:16:33;;;;;;;25.80;17.40;;;4.10;70.60;;;7.00;51.32;100954.81;5053011;28;20198;-54
2022/12/10 08:19:02;;;;;;;26.73;17.03;;;4.10;70.20;;;7.06;51.54;100959.50;5053532;28;20554;-53
2022/12/10 08:21:31;;;;;;;26.43;17.07;;;4.20;70.70;;;7.11;51.54;100952.81;5056706;28;20219;-52
2022/12/10 08:24:00;;;;;;;34.23;20.87;;;4.20;70.80;;;7.11;51.87;100968.53;5057112;28;20671;-52
2022/12/10 08:26:30;;;;;;;28.67;18.50;;;4.20;71.20;;;7.07;51.65;100968.97;5056874;28;20261;-54
2022/12/10 08:28:58;;;;;;;32.03;18.90;;;4.20;71.10;;;7.04;52.37;100969.25;5056030;28;20217;-52
2022/12/10 08:31:27;;;;;;;30.00;20.57;;;4.20;71.50;;;7.06;52.16;100969.97;5056240;28;20190;-52
2022/12/10 08:34:01;;;;;;;31.53;18.93;;;4.20;71.70;;;7.09;52.57;100969.63;5056540;28;20225;-55
2022/12/10 08:36:30;;;;;;;26.27;18.50;;;4.20;71.80;;;7.12;52.72;100974.59;5056438;28;20210;-51
2022/12/10 08:38:57;;;;;;;31.37;20.83;;;4.20;71.70;;;7.10;52.32;100973.91;5054998;28;20280;-54
2022/12/10 08:41:24;;;;;;;29.10;19.73;;;4.20;72.00;;;7.04;52.25;100977.09;5056582;28;20264;-54
2022/12/10 08:43:52;;;;;;;28.97;18.93;;;4.20;72.00;;;7.02;52.89;100979.03;5056288;28;20202;-54
2022/12/10 08:46:19;;;;;;;31.27;19.80;;;4.20;72.20;;;7.02;52.80;100976.44;5056131;28;20206;-54
2022/12/10 08:48:46;;;;;;;33.00;20.07;;;4.20;72.60;;;7.07;53.43;100979.44;5055895;28;20267;-52
2022/12/10 08:51:18;;;;;;;81.37;44.83;;;4.20;72.90;;;7.11;53.46;100972.94;5056334;28;20261;-53
2022/12/10 08:53:46;;;;;;;33.43;22.33;;;4.20;73.30;;;7.11;53.10;100976.38;5051335;28;20197;-53
2022/12/10 08:56:13;;;;;;;35.00;21.37;;;4.20;73.20;;;7.07;53.44;100968.97;5036297;28;20517;-52
2022/12/10 08:58:41;;;;;;;32.80;20.27;;;4.20;73.30;;;7.10;53.85;100977.38;5044752;28;20258;-53
2022/12/10 09:01:09;;;;;;;33.30;22.23;;;4.20;73.50;;;7.12;53.59;100975.41;5056357;28;20214;-53
2022/12/10 09:03:37;;;;;;;39.27;22.87;;;4.20;73.50;;;7.20;53.62;100979.94;5055701;28;20200;-52
2022/12/10 09:06:06;;;;;;;32.67;22.37;;;4.30;74.10;;;7.24;53.31;100978.66;5054566;28;20205;-53
2022/12/10 09:08:37;;;;;;;22.63;16.17;;;4.30;73.70;;;7.27;53.28;100986.22;5055373;28;20702;-52
2022/12/10 09:11:06;;;;;;;30.43;19.27;;;4.30;73.00;;;7.33;52.94;100985.63;5055327;28;20176;-53
2022/12/10 09:13:34;;;;;;;52.87;37.43;;;4.30;72.90;;;7.40;53.02;100986.69;5055688;28;20198;-53
2022/12/10 09:16:01;;;;;;;33.80;20.60;;;4.40;73.10;;;7.47;52.85;100990.34;5055898;28;20238;-53
2022/12/10 09:18:28;;;;;;;30.13;19.80;;;4.40;73.10;;;7.58;52.75;100994.56;5055239;28;20207;-53
2022/12/10 09:20:55;;;;;;;32.73;20.50;;;4.50;73.30;;;7.65;52.37;101003.47;5055703;28;20626;-53
2022/12/10 09:23:23;;;;;;;30.40;20.83;;;4.60;72.90;;;7.66;52.19;101011.16;5055014;28;20196;-53
2022/12/10 09:25:51;;;;;;;34.33;20.70;;;4.60;72.30;;;7.65;51.55;101006.09;5055528;28;20254;-55
2022/12/10 09:28:18;;;;;;;23.23;15.80;;;4.70;71.50;;;7.56;50.65;101010.41;5055010;28;20202;-54
2022/12/10 09:30:54;;;;;;;22.20;16.00;;;4.60;70.10;;;7.53;51.00;101006.28;5054577;28;20195;-56
2022/12/10 09:33:21;;;;;;;27.73;18.47;;;4.60;70.30;;;7.59;51.38;101004.88;5055174;28;20253;-54
2022/12/10 09:35:48;;;;;;;27.87;18.37;;;4.60;70.60;;;7.67;51.25;101002.34;5055601;28;20610;-54
2022/12/10 09:38:15;;;;;;;24.97;17.77;;;4.70;70.90;;;7.75;51.35;101010.25;5055621;28;20199;-53
2022/12/10 09:40:50;;;;;;;30.10;18.87;;;4.70;71.00;;;7.86;51.11;101007.44;5056352;28;20201;-54
2022/12/10 09:43:32;;;;;;;22.30;16.07;;;4.80;70.70;;;7.90;49.71;101003.53;5055521;28;20198;-52
2022/12/10 09:46:11;;;;;;;21.03;14.47;;;4.90;69.10;;;7.90;49.96;101006.16;5054528;28;20201;-53
2022/12/10 09:48:58;;;;;;;22.37;16.63;;;4.90;69.10;;;7.93;49.82;100998.00;5054263;28;20305;-52
2022/12/10 09:51:34;;;;;;;28.00;17.80;;;4.90;68.90;;;8.00;49.78;100998.22;5054634;28;20199;-54
2022/12/10 09:54:11;;;;;;;25.93;17.70;;;5.00;68.40;;;7.98;48.69;101003.63;5054769;28;20203;-52
2022/12/10 09:56:39;;;;;;;30.70;19.27;;;5.00;66.90;;;7.96;49.02;101002.13;5070259;28;20191;-53
2022/12/10 09:59:21;;;;;;;22.60;16.37;;;5.00;67.40;;;7.90;48.51;101003.53;5045481;28;20226;-53
2022/12/10 10:02:01;;;;;;;23.03;15.97;;;5.00;66.90;;;7.88;48.58;101002.88;5034686;28;20274;-54
2022/12/10 10:04:29;;;;;;;24.57;16.63;;;4.90;66.20;;;7.85;48.23;101000.53;5035029;28;20396;-53
2022/12/10 10:06:57;;;;;;;24.00;16.63;;;4.90;66.00;;;7.84;48.60;101004.16;5034768;28;20214;-52
2022/12/10 10:09:24;;;;;;;24.43;16.43;;;4.90;66.50;;;7.85;48.59;101000.53;5034449;28;20212;-53
2022/12/10 10:11:53;;;;;;;26.50;18.13;;;4.90;66.60;;;7.88;48.36;101009.91;5034590;28;20534;-56
2022/12/10 10:14:27;;;;;;;24.77;16.73;;;4.90;66.90;;;7.86;48.65;101007.44;5034922;28;20200;-53
2022/12/10 10:17:00;;;;;;;21.07;13.70;;;4.90;66.50;;;7.82;48.05;101010.50;5034283;28;20203;-53
2022/12/10 10:19:33;;;;;;;18.73;12.97;;;4.80;65.70;;;7.83;47.92;101007.72;5037209;28;20641;-52
2022/12/10 10:22:01;;;;;;;19.57;13.63;;;4.90;65.50;;;7.74;46.92;101006.00;5054762;28;20215;-53
2022/12/10 10:24:35;;;;;;;22.73;15.27;;;4.80;63.90;;;7.71;47.73;101008.09;5054325;28;20659;-52
2022/12/10 10:27:14;;;;;;;26.03;18.73;;;4.80;64.70;;;7.74;48.21;101008.63;5054691;28;20189;-55
2022/12/10 10:29:45;;;;;;;22.77;14.43;;;4.80;65.60;;;7.82;47.77;101016.53;5054142;28;20215;-54
2022/12/10 10:32:19;;;;;;;18.20;12.20;;;4.80;65.40;;;7.84;47.25;101009.38;5054097;28;20185;-55
2022/12/10 10:34:52;;;;;;;17.60;11.87;;;4.90;64.80;;;7.89;46.95;101009.72;5054433;28;20190;-56